createdAt,value
2023-03-20T00:00:34.614Z,16.61
2023-03-20T00:01:34.597Z,16.60
2023-03-20T00:02:34.592Z,16.60
2023-03-20T00:03:34.616Z,16.63
2023-03-20T00:04:34.702Z,16.61
2023-03-20T00:05:34.908Z,16.60
2023-03-20T00:06:34.552Z,16.63
2023-03-20T00:07:34.541Z,16.61
2023-03-20T00:08:34.526Z,16.61
2023-03-20T00:09:34.531Z,16.61
2023-03-20T00:10:34.505Z,16.60
2023-03-20T00:11:34.507Z,16.60
2023-03-20T00:12:34.480Z,16.63
2023-03-20T00:13:34.471Z,16.61
2023-03-20T00:14:34.485Z,16.61
2023-03-20T00:15:34.745Z,16.61
2023-03-20T00:16:34.487Z,16.61
2023-03-20T00:17:34.451Z,16.60
2023-03-20T00:18:34.435Z,16.61
2023-03-20T00:19:34.406Z,16.61
2023-03-20T00:20:34.708Z,16.63
2023-03-20T00:21:34.483Z,16.61
2023-03-20T00:22:34.379Z,16.61
2023-03-20T00:23:34.385Z,16.60
2023-03-20T00:24:34.372Z,16.61
2023-03-20T00:25:34.731Z,16.61
2023-03-20T00:26:34.349Z,16.60
2023-03-20T00:27:34.321Z,16.60
2023-03-20T00:28:34.309Z,16.60
2023-03-20T00:29:34.377Z,16.60
2023-03-20T00:30:34.288Z,16.60
2023-03-20T00:31:34.332Z,16.60
2023-03-20T00:32:34.333Z,16.60
2023-03-20T00:33:34.261Z,16.60
2023-03-20T00:34:34.245Z,16.60
2023-03-20T00:35:34.724Z,16.60
2023-03-20T00:36:34.279Z,16.60
2023-03-20T00:37:34.214Z,16.60
2023-03-20T00:38:34.202Z,16.60
2023-03-20T00:39:34.195Z,16.60
2023-03-20T00:40:34.201Z,16.61
2023-03-20T00:41:34.200Z,16.60
2023-03-20T00:42:34.179Z,16.60
2023-03-20T00:43:34.173Z,16.60
2023-03-20T00:44:34.159Z,16.60
2023-03-20T00:45:34.367Z,16.61
2023-03-20T00:46:34.159Z,16.60
2023-03-20T00:47:34.134Z,16.60
2023-03-20T00:48:34.098Z,16.61
2023-03-20T00:49:34.102Z,16.60
2023-03-20T00:50:34.074Z,16.61
2023-03-20T00:51:34.068Z,16.60
2023-03-20T00:52:34.078Z,16.60
2023-03-20T00:53:34.048Z,16.60
2023-03-20T00:54:34.057Z,16.60
2023-03-20T00:55:34.344Z,16.60
2023-03-20T00:56:34.024Z,16.60
2023-03-20T00:57:34.012Z,16.60
2023-03-20T00:58:33.998Z,16.58
2023-03-20T00:59:33.982Z,16.58
2023-03-20T01:00:34.028Z,16.58
2023-03-20T01:01:33.954Z,16.60
2023-03-20T01:02:33.962Z,16.58
2023-03-20T01:03:33.934Z,16.60
2023-03-20T01:04:33.928Z,16.60
2023-03-20T01:05:34.271Z,16.60
2023-03-20T01:06:33.905Z,16.60
2023-03-20T01:07:33.901Z,16.60
2023-03-20T01:08:33.906Z,16.60
2023-03-20T01:09:33.867Z,16.60
2023-03-20T01:10:33.877Z,16.60
2023-03-20T01:11:33.847Z,16.60
2023-03-20T01:12:33.854Z,16.58
2023-03-20T01:13:33.822Z,16.58
2023-03-20T01:14:33.815Z,16.58
2023-03-20T01:15:34.262Z,16.58
2023-03-20T01:16:33.839Z,16.58
2023-03-20T01:17:33.823Z,16.60
2023-03-20T01:18:33.773Z,16.60
2023-03-20T01:19:33.759Z,16.60
2023-03-20T01:20:33.751Z,16.60
2023-03-20T01:21:33.737Z,16.58
2023-03-20T01:22:33.736Z,16.58
2023-03-20T01:23:33.732Z,16.58
2023-03-20T01:24:33.745Z,16.58
2023-03-20T01:25:33.907Z,16.58
2023-03-20T01:26:33.682Z,16.58
2023-03-20T01:27:33.673Z,16.58
2023-03-20T01:28:33.660Z,16.60
2023-03-20T01:29:33.669Z,16.58
2023-03-20T01:30:33.639Z,16.60
2023-03-20T01:31:33.658Z,16.58
2023-03-20T01:32:33.677Z,16.58
2023-03-20T01:33:33.626Z,16.57
2023-03-20T01:34:33.595Z,16.58
2023-03-20T01:35:33.958Z,16.58
2023-03-20T01:36:33.574Z,16.58
2023-03-20T01:37:33.565Z,16.57
2023-03-20T01:38:33.572Z,16.58
2023-03-20T01:39:33.558Z,16.58
2023-03-20T01:40:33.557Z,16.58
2023-03-20T01:41:33.547Z,16.57
2023-03-20T01:42:33.545Z,16.58
2023-03-20T01:43:33.503Z,16.58
2023-03-20T01:44:33.513Z,16.60
2023-03-20T01:45:33.620Z,16.58
2023-03-20T01:46:33.493Z,16.58
2023-03-20T01:47:33.477Z,16.58
2023-03-20T01:48:33.451Z,16.57
2023-03-20T01:49:33.462Z,16.58
2023-03-20T01:50:33.430Z,16.58
2023-03-20T01:51:33.425Z,16.57
2023-03-20T01:52:33.406Z,16.57
2023-03-20T01:53:33.397Z,16.57
2023-03-20T01:54:33.394Z,16.58
2023-03-20T01:55:33.664Z,16.60
2023-03-20T01:56:33.399Z,16.58
2023-03-20T01:57:33.356Z,16.58
2023-03-20T01:58:33.351Z,16.57
2023-03-20T01:59:33.335Z,16.57
2023-03-20T02:00:33.341Z,16.57
2023-03-20T02:01:33.474Z,16.58
2023-03-20T02:02:33.311Z,16.58
2023-03-20T02:03:33.290Z,16.57
2023-03-20T02:04:33.312Z,16.58
2023-03-20T02:05:33.436Z,16.58
2023-03-20T02:06:33.264Z,16.58
2023-03-20T02:07:33.247Z,16.57
2023-03-20T02:08:33.245Z,16.57
2023-03-20T02:09:33.260Z,16.57
2023-03-20T02:10:33.215Z,16.57
2023-03-20T02:11:33.204Z,16.57
2023-03-20T02:12:33.240Z,16.58
2023-03-20T02:13:33.202Z,16.57
2023-03-20T02:14:33.180Z,16.57
2023-03-20T02:15:33.300Z,16.57
2023-03-20T02:16:33.197Z,16.57
2023-03-20T02:17:33.148Z,16.57
2023-03-20T02:18:33.153Z,16.57
2023-03-20T02:19:33.117Z,16.58
2023-03-20T02:20:33.119Z,16.57
2023-03-20T02:21:33.140Z,16.57
2023-03-20T02:22:33.087Z,16.57
2023-03-20T02:23:33.094Z,16.58
2023-03-20T02:24:33.082Z,16.57
2023-03-20T02:25:33.161Z,16.57
2023-03-20T02:26:33.043Z,16.57
2023-03-20T02:27:33.043Z,16.57
2023-03-20T02:28:33.063Z,16.57
2023-03-20T02:29:33.030Z,16.56
2023-03-20T02:30:33.041Z,16.58
2023-03-20T02:31:32.989Z,16.57
2023-03-20T02:32:33.028Z,16.57
2023-03-20T02:33:32.970Z,16.57
2023-03-20T02:34:32.961Z,16.57
2023-03-20T02:35:32.964Z,16.57
2023-03-20T02:36:32.946Z,16.58
2023-03-20T02:37:32.973Z,16.57
2023-03-20T02:38:32.914Z,16.57
2023-03-20T02:39:32.950Z,16.57
2023-03-20T02:40:32.893Z,16.57
2023-03-20T02:41:32.962Z,16.57
2023-03-20T02:42:33.945Z,16.56
2023-03-20T02:43:32.893Z,16.56
2023-03-20T02:44:32.883Z,16.56
2023-03-20T02:45:33.004Z,16.56
2023-03-20T02:46:32.880Z,16.57
2023-03-20T02:47:32.819Z,16.56
2023-03-20T02:48:32.831Z,16.57
2023-03-20T02:49:32.805Z,16.56
2023-03-20T02:50:32.786Z,16.57
2023-03-20T02:51:32.779Z,16.56
2023-03-20T02:52:32.782Z,16.57
2023-03-20T02:53:32.780Z,16.58
2023-03-20T02:54:32.742Z,16.57
2023-03-20T02:55:33.021Z,16.57
2023-03-20T02:56:32.730Z,16.56
2023-03-20T02:57:32.721Z,16.56
2023-03-20T02:58:32.701Z,16.56
2023-03-20T02:59:32.724Z,16.57
2023-03-20T03:00:32.711Z,16.57
2023-03-20T03:01:32.761Z,16.53
2023-03-20T03:02:32.716Z,16.56
2023-03-20T03:03:32.649Z,16.57
2023-03-20T03:04:32.662Z,16.57
2023-03-20T03:05:32.693Z,16.56
2023-03-20T03:06:32.626Z,16.57
2023-03-20T03:07:32.611Z,16.57
2023-03-20T03:08:32.603Z,16.56
2023-03-20T03:09:32.607Z,16.57
2023-03-20T03:10:32.779Z,16.56
2023-03-20T03:11:32.573Z,16.56
2023-03-20T03:12:32.564Z,16.57
2023-03-20T03:13:32.591Z,16.56
2023-03-20T03:14:32.555Z,16.56
2023-03-20T03:15:32.549Z,16.56
2023-03-20T03:16:32.542Z,16.57
2023-03-20T03:17:32.497Z,16.53
2023-03-20T03:18:32.493Z,16.53
2023-03-20T03:19:32.479Z,16.56
2023-03-20T03:20:32.516Z,16.56
2023-03-20T03:21:32.462Z,16.56
2023-03-20T03:22:32.445Z,16.56
2023-03-20T03:23:32.438Z,16.56
2023-03-20T03:24:40.902Z,16.56
2023-03-20T03:25:33.658Z,16.56
2023-03-20T03:26:32.405Z,16.56
2023-03-20T03:27:32.422Z,16.56
2023-03-20T03:28:32.382Z,16.56
2023-03-20T03:29:32.375Z,16.53
2023-03-20T03:30:32.374Z,16.56
2023-03-20T03:31:32.414Z,16.53
2023-03-20T03:32:32.362Z,16.56
2023-03-20T03:33:32.396Z,16.53
2023-03-20T03:34:32.322Z,16.56
2023-03-20T03:35:32.327Z,16.56
2023-03-20T03:36:32.315Z,16.53
2023-03-20T03:37:32.285Z,16.53
2023-03-20T03:38:32.283Z,16.53
2023-03-20T03:39:32.296Z,16.56
2023-03-20T03:40:32.252Z,16.53
2023-03-20T03:41:32.247Z,16.56
2023-03-20T03:42:32.230Z,16.53
2023-03-20T03:43:32.226Z,16.52
2023-03-20T03:44:32.249Z,16.56
2023-03-20T03:45:32.200Z,16.52
2023-03-20T03:46:32.266Z,16.53
2023-03-20T03:47:32.185Z,16.53
2023-03-20T03:48:32.224Z,16.53
2023-03-20T03:49:32.163Z,16.53
2023-03-20T03:50:32.158Z,16.53
2023-03-20T03:51:32.144Z,16.52
2023-03-20T03:52:32.127Z,16.53
2023-03-20T03:53:32.132Z,16.52
2023-03-20T03:54:32.153Z,16.53
2023-03-20T03:55:32.137Z,16.53
2023-03-20T03:56:32.090Z,16.52
2023-03-20T03:57:32.087Z,16.52
2023-03-20T03:58:32.061Z,16.53
2023-03-20T03:59:32.053Z,16.56
2023-03-20T04:00:32.049Z,16.53
2023-03-20T04:01:32.081Z,16.53
2023-03-20T04:02:32.041Z,16.52
2023-03-20T04:03:32.009Z,16.52
2023-03-20T04:04:32.093Z,16.53
2023-03-20T04:05:32.019Z,16.53
2023-03-20T04:06:31.990Z,16.53
2023-03-20T04:07:31.968Z,16.56
2023-03-20T04:08:31.961Z,16.56
2023-03-20T04:09:31.966Z,16.53
2023-03-20T04:10:31.943Z,16.56
2023-03-20T04:11:31.924Z,16.53
2023-03-20T04:12:31.938Z,16.53
2023-03-20T04:13:31.905Z,16.53
2023-03-20T04:14:31.899Z,16.53
2023-03-20T04:15:31.882Z,16.53
2023-03-20T04:16:31.898Z,16.53
2023-03-20T04:17:31.887Z,16.53
2023-03-20T04:18:31.875Z,16.53
2023-03-20T04:19:31.851Z,16.56
2023-03-20T04:20:31.859Z,16.56
2023-03-20T04:21:31.822Z,16.56
2023-03-20T04:22:31.813Z,16.52
2023-03-20T04:23:31.827Z,16.53
2023-03-20T04:24:31.797Z,16.53
2023-03-20T04:25:31.778Z,16.52
2023-03-20T04:26:31.765Z,16.53
2023-03-20T04:27:31.801Z,16.53
2023-03-20T04:28:31.744Z,16.53
2023-03-20T04:29:31.741Z,16.53
2023-03-20T04:30:31.725Z,16.56
2023-03-20T04:31:31.789Z,16.53
2023-03-20T04:32:31.725Z,16.52
2023-03-20T04:33:31.697Z,16.53
2023-03-20T04:34:31.682Z,16.52
2023-03-20T04:35:31.673Z,16.56
2023-03-20T04:36:31.693Z,16.53
2023-03-20T04:37:31.657Z,16.52
2023-03-20T04:38:31.678Z,16.52
2023-03-20T04:39:31.655Z,16.53
2023-03-20T04:40:31.636Z,16.52
2023-03-20T04:41:31.620Z,16.52
2023-03-20T04:42:31.604Z,16.52
2023-03-20T04:43:31.589Z,16.50
2023-03-20T04:44:31.593Z,16.52
2023-03-20T04:45:31.666Z,16.52
2023-03-20T04:46:31.552Z,16.52
2023-03-20T04:47:31.544Z,16.53
2023-03-20T04:48:31.536Z,16.52
2023-03-20T04:49:31.540Z,16.52
2023-03-20T04:50:31.511Z,16.52
2023-03-20T04:51:31.500Z,16.53
2023-03-20T04:52:31.647Z,16.53
2023-03-20T04:53:31.497Z,16.52
2023-03-20T04:54:31.485Z,16.52
2023-03-20T04:55:31.472Z,16.52
2023-03-20T04:56:31.472Z,16.52
2023-03-20T04:57:31.464Z,16.52
2023-03-20T04:58:31.452Z,16.52
2023-03-20T04:59:31.412Z,16.52
2023-03-20T05:00:31.406Z,16.52
2023-03-20T05:01:31.496Z,16.52
2023-03-20T05:02:31.383Z,16.52
2023-03-20T05:03:31.392Z,16.52
2023-03-20T05:04:31.497Z,16.52
2023-03-20T05:05:31.362Z,16.52
2023-03-20T05:06:31.361Z,16.52
2023-03-20T05:07:31.327Z,16.53
2023-03-20T05:08:31.366Z,16.50
2023-03-20T05:09:31.306Z,16.52
2023-03-20T05:10:31.332Z,16.52
2023-03-20T05:11:31.282Z,16.53
2023-03-20T05:12:31.273Z,16.52
2023-03-20T05:13:31.260Z,16.50
2023-03-20T05:14:31.267Z,16.52
2023-03-20T05:15:31.238Z,16.52
2023-03-20T05:16:31.275Z,16.52
2023-03-20T05:17:31.248Z,16.53
2023-03-20T05:18:31.209Z,16.52
2023-03-20T05:19:31.196Z,16.52
2023-03-20T05:20:31.185Z,16.50
2023-03-20T05:21:31.170Z,16.52
2023-03-20T05:22:31.207Z,16.52
2023-03-20T05:23:31.156Z,16.52
2023-03-20T05:24:31.165Z,16.52
2023-03-20T05:25:31.130Z,16.52
2023-03-20T05:26:31.131Z,16.53
2023-03-20T05:27:31.127Z,16.50
2023-03-20T05:28:31.122Z,16.53
2023-03-20T05:29:31.087Z,16.52
2023-03-20T05:30:31.079Z,16.52
2023-03-20T05:31:31.063Z,16.52
2023-03-20T05:32:31.061Z,16.52
2023-03-20T05:33:31.071Z,16.50
2023-03-20T05:34:31.038Z,16.50
2023-03-20T05:35:31.019Z,16.52
2023-03-20T05:36:31.022Z,16.50
2023-03-20T05:37:31.004Z,16.52
2023-03-20T05:38:30.990Z,16.52
2023-03-20T05:39:30.999Z,16.52
2023-03-20T05:40:30.995Z,16.52
2023-03-20T05:41:30.962Z,16.52
2023-03-20T05:42:30.960Z,16.52
2023-03-20T05:43:30.935Z,16.52
2023-03-20T05:44:30.925Z,16.52
2023-03-20T05:45:30.924Z,16.50
2023-03-20T05:46:30.994Z,16.52
2023-03-20T05:47:30.915Z,16.52
2023-03-20T05:48:30.881Z,16.52
2023-03-20T05:49:30.876Z,16.52
2023-03-20T05:50:30.855Z,16.52
2023-03-20T05:51:30.846Z,16.52
2023-03-20T05:52:30.834Z,16.52
2023-03-20T05:53:30.843Z,16.52
2023-03-20T05:54:30.814Z,16.50
2023-03-20T05:55:30.828Z,16.49
2023-03-20T05:56:30.848Z,16.50
2023-03-20T05:57:30.782Z,16.52
2023-03-20T05:58:30.797Z,16.50
2023-03-20T05:59:30.772Z,16.50
2023-03-20T06:00:30.754Z,16.52
2023-03-20T06:01:30.758Z,16.50
2023-03-20T06:02:30.771Z,16.50
2023-03-20T06:03:30.846Z,16.50
2023-03-20T06:04:30.715Z,16.50
2023-03-20T06:05:30.698Z,16.50
2023-03-20T06:06:30.711Z,16.50
2023-03-20T06:07:30.681Z,16.50
2023-03-20T06:08:30.673Z,16.52
2023-03-20T06:09:30.656Z,16.50
2023-03-20T06:10:30.650Z,16.50
2023-03-20T06:11:30.641Z,16.50
2023-03-20T06:12:30.673Z,16.50
2023-03-20T06:13:30.612Z,16.50
2023-03-20T06:14:30.604Z,16.50
2023-03-20T06:15:30.591Z,16.50
2023-03-20T06:16:30.583Z,16.50
2023-03-20T06:17:30.611Z,16.50
2023-03-20T06:18:30.565Z,16.50
2023-03-20T06:19:30.580Z,16.50
2023-03-20T06:20:30.557Z,16.50
2023-03-20T06:21:30.542Z,16.50
2023-03-20T06:22:30.520Z,16.50
2023-03-20T06:23:30.525Z,16.50
2023-03-20T06:24:30.513Z,16.50
2023-03-20T06:25:30.520Z,16.50
2023-03-20T06:26:30.483Z,16.50
2023-03-20T06:27:30.462Z,16.52
2023-03-20T06:28:30.477Z,16.50
2023-03-20T06:29:30.443Z,16.50
2023-03-20T06:30:30.436Z,16.50
2023-03-20T06:31:30.535Z,16.50
2023-03-20T06:32:30.412Z,16.50
2023-03-20T06:33:30.401Z,16.50
2023-03-20T06:34:30.419Z,16.50
2023-03-20T06:35:30.536Z,16.52
2023-03-20T06:36:30.364Z,16.50
2023-03-20T06:37:30.352Z,16.49
2023-03-20T06:38:30.370Z,16.50
2023-03-20T06:39:30.331Z,16.50
2023-03-20T06:40:30.316Z,16.50
2023-03-20T06:41:34.525Z,16.52
2023-03-20T06:42:30.310Z,16.49
2023-03-20T06:43:30.289Z,16.50
2023-03-20T06:44:30.313Z,16.52
2023-03-20T06:45:30.262Z,16.52
2023-03-20T06:46:30.330Z,16.52
2023-03-20T06:47:30.243Z,16.50
2023-03-20T06:48:30.257Z,16.50
2023-03-20T06:49:30.220Z,16.50
2023-03-20T06:50:30.213Z,16.50
2023-03-20T06:51:30.198Z,16.50
2023-03-20T06:52:30.189Z,16.52
2023-03-20T06:53:30.208Z,16.49
2023-03-20T06:54:30.167Z,16.49
2023-03-20T06:55:30.153Z,16.50
2023-03-20T06:56:30.145Z,16.50
2023-03-20T06:57:30.151Z,16.50
2023-03-20T06:58:30.124Z,16.49
2023-03-20T06:59:30.113Z,16.50
2023-03-20T07:00:30.167Z,16.50
2023-03-20T07:01:30.159Z,16.52
2023-03-20T07:02:30.099Z,16.50
2023-03-20T07:03:30.075Z,16.50
2023-03-20T07:04:30.121Z,16.50
2023-03-20T07:05:30.047Z,16.50
2023-03-20T07:06:30.055Z,16.49
2023-03-20T07:07:30.027Z,16.50
2023-03-20T07:08:30.034Z,16.49
2023-03-20T07:09:30.009Z,16.50
2023-03-20T07:10:30.177Z,16.50
2023-03-20T07:11:29.987Z,16.50
2023-03-20T07:12:29.978Z,16.50
2023-03-20T07:13:29.993Z,16.49
2023-03-20T07:14:29.955Z,16.50
2023-03-20T07:15:29.955Z,16.50
2023-03-20T07:16:30.056Z,16.50
2023-03-20T07:17:29.925Z,16.50
2023-03-20T07:18:29.916Z,16.49
2023-03-20T07:19:29.906Z,16.50
2023-03-20T07:20:29.975Z,16.50
2023-03-20T07:21:29.885Z,16.50
2023-03-20T07:22:29.893Z,16.52
2023-03-20T07:23:29.864Z,16.50
2023-03-20T07:24:29.878Z,16.52
2023-03-20T07:25:41.817Z,16.50
2023-03-20T07:26:30.826Z,16.50
2023-03-20T07:27:29.833Z,16.50
2023-03-20T07:28:29.806Z,16.50
2023-03-20T07:29:29.797Z,16.50
2023-03-20T07:30:29.788Z,16.49
2023-03-20T07:31:29.897Z,16.50
2023-03-20T07:32:29.834Z,16.50
2023-03-20T07:33:29.751Z,16.50
2023-03-20T07:34:29.751Z,16.50
2023-03-20T07:35:29.789Z,16.50
2023-03-20T07:36:29.729Z,16.50
2023-03-20T07:37:29.705Z,16.52
2023-03-20T07:38:29.722Z,16.50
2023-03-20T07:39:29.685Z,16.50
2023-03-20T07:40:29.678Z,16.50
2023-03-20T07:41:29.681Z,16.50
2023-03-20T07:42:29.650Z,16.52
2023-03-20T07:43:29.635Z,16.49
2023-03-20T07:44:29.628Z,16.50
2023-03-20T07:45:29.674Z,16.52
2023-03-20T07:46:29.603Z,16.50
2023-03-20T07:47:29.684Z,16.50
2023-03-20T07:48:29.678Z,16.50
2023-03-20T07:49:29.569Z,16.49
2023-03-20T07:50:29.560Z,16.50
2023-03-20T07:51:29.551Z,16.50
2023-03-20T07:52:29.572Z,16.50
2023-03-20T07:53:29.525Z,16.50
2023-03-20T07:54:29.516Z,16.50
2023-03-20T07:55:29.506Z,16.50
2023-03-20T07:56:29.495Z,16.50
2023-03-20T07:57:29.491Z,16.49
2023-03-20T07:58:29.498Z,16.50
2023-03-20T07:59:29.461Z,16.50
2023-03-20T08:00:29.530Z,16.52
2023-03-20T08:01:29.448Z,16.50
2023-03-20T08:02:29.433Z,16.50
2023-03-20T08:03:29.583Z,16.49
2023-03-20T08:04:29.433Z,16.49
2023-03-20T08:05:29.586Z,16.49
2023-03-20T08:06:29.386Z,16.52
2023-03-20T08:07:29.398Z,16.50
2023-03-20T08:08:29.372Z,16.50
2023-03-20T08:09:29.356Z,16.50
2023-03-20T08:10:29.341Z,16.50
2023-03-20T08:11:29.337Z,16.52
2023-03-20T08:12:29.348Z,16.50
2023-03-20T08:13:29.313Z,16.52
2023-03-20T08:14:29.306Z,16.50
2023-03-20T08:15:29.296Z,16.53
2023-03-20T08:16:29.379Z,16.52
2023-03-20T08:17:29.392Z,16.53
2023-03-20T08:18:29.280Z,16.52
2023-03-20T08:19:29.254Z,16.53
2023-03-20T08:20:29.259Z,16.52
2023-03-20T08:21:29.251Z,16.52
2023-03-20T08:22:29.216Z,16.53
2023-03-20T08:23:29.238Z,16.56
2023-03-20T08:24:29.194Z,16.53
2023-03-20T08:25:29.183Z,16.53
2023-03-20T08:26:29.202Z,16.53
2023-03-20T08:27:29.163Z,16.53
2023-03-20T08:28:46.270Z,16.52
2023-03-20T08:29:30.149Z,16.53
2023-03-20T08:30:29.441Z,16.56
2023-03-20T08:31:29.132Z,16.56
2023-03-20T08:32:29.144Z,16.57
2023-03-20T08:33:29.104Z,16.57
2023-03-20T08:34:29.092Z,16.58
2023-03-20T08:35:33.267Z,16.58
2023-03-20T08:36:29.094Z,16.60
2023-03-20T08:37:29.082Z,16.61
2023-03-20T08:38:29.046Z,16.61
2023-03-20T08:39:29.049Z,16.63
2023-03-20T08:40:29.029Z,16.66
2023-03-20T08:41:29.019Z,16.64
2023-03-20T08:42:29.002Z,16.66
2023-03-20T08:43:29.010Z,16.67
2023-03-20T08:44:29.005Z,16.66
2023-03-20T08:45:28.991Z,16.67
2023-03-20T08:46:29.008Z,16.70
2023-03-20T08:47:28.965Z,16.70
2023-03-20T08:48:28.955Z,16.70
2023-03-20T08:49:28.943Z,16.70
2023-03-20T08:50:28.917Z,16.71
2023-03-20T08:51:28.900Z,16.71
2023-03-20T08:52:28.920Z,16.71
2023-03-20T08:53:28.897Z,16.73
2023-03-20T08:54:28.873Z,16.73
2023-03-20T08:55:28.858Z,16.75
2023-03-20T08:56:28.886Z,16.75
2023-03-20T08:57:28.840Z,16.73
2023-03-20T08:58:28.828Z,16.73
2023-03-20T08:59:28.828Z,16.75
2023-03-20T09:00:28.820Z,16.75
2023-03-20T09:01:46.004Z,16.76
2023-03-20T09:02:29.957Z,16.75
2023-03-20T09:03:28.790Z,16.76
2023-03-20T09:04:28.773Z,16.76
2023-03-20T09:05:28.753Z,16.76
2023-03-20T09:06:28.758Z,16.78
2023-03-20T09:07:28.731Z,16.76
2023-03-20T09:08:28.739Z,16.75
2023-03-20T09:09:28.705Z,16.75
2023-03-20T09:10:28.691Z,16.75
2023-03-20T09:11:28.686Z,16.75
2023-03-20T09:12:28.691Z,16.76
2023-03-20T09:13:28.666Z,16.75
2023-03-20T09:14:28.665Z,16.76
2023-03-20T09:15:28.640Z,16.76
2023-03-20T09:16:28.696Z,16.75
2023-03-20T09:17:28.639Z,16.76
2023-03-20T09:18:28.605Z,16.78
2023-03-20T09:19:30.033Z,16.78
2023-03-20T09:20:28.585Z,16.78
2023-03-20T09:21:28.589Z,16.78
2023-03-20T09:22:28.583Z,16.78
2023-03-20T09:23:28.555Z,16.78
2023-03-20T09:24:28.568Z,16.78
2023-03-20T09:25:28.534Z,16.81
2023-03-20T09:26:28.553Z,16.79
2023-03-20T09:27:28.537Z,16.79
2023-03-20T09:28:28.508Z,16.79
2023-03-20T09:29:28.488Z,16.78
2023-03-20T09:30:28.501Z,16.79
2023-03-20T09:31:28.541Z,16.81
2023-03-20T09:32:28.482Z,16.81
2023-03-20T09:33:28.466Z,16.81
2023-03-20T09:34:28.439Z,16.81
2023-03-20T09:35:28.450Z,16.81
2023-03-20T09:36:28.425Z,16.79
2023-03-20T09:37:28.420Z,16.81
2023-03-20T09:38:28.411Z,16.81
2023-03-20T09:39:28.380Z,16.81
2023-03-20T09:40:28.395Z,16.81
2023-03-20T09:41:28.556Z,16.81
2023-03-20T09:42:28.400Z,16.79
2023-03-20T09:43:28.340Z,16.81
2023-03-20T09:44:28.334Z,16.79
2023-03-20T09:45:28.329Z,16.79
2023-03-20T09:46:28.395Z,16.78
2023-03-20T09:47:28.303Z,16.78
2023-03-20T09:48:28.334Z,16.76
2023-03-20T09:49:28.276Z,16.76
2023-03-20T09:50:28.276Z,16.76
2023-03-20T09:51:28.277Z,16.75
2023-03-20T09:52:28.249Z,16.75
2023-03-20T09:53:28.230Z,16.75
2023-03-20T09:54:28.221Z,16.75
2023-03-20T09:55:28.250Z,16.73
2023-03-20T09:56:28.234Z,16.73
2023-03-20T09:57:28.209Z,16.75
2023-03-20T09:58:28.181Z,16.75
2023-03-20T09:59:28.200Z,16.75
2023-03-20T10:00:28.160Z,16.75
2023-03-20T10:01:28.187Z,16.75
2023-03-20T10:02:28.132Z,16.78
2023-03-20T10:03:28.123Z,16.76
2023-03-20T10:04:28.136Z,16.76
2023-03-20T10:05:28.120Z,16.78
2023-03-20T10:06:28.093Z,16.78
2023-03-20T10:07:28.081Z,16.78
2023-03-20T10:08:28.067Z,16.79
2023-03-20T10:09:28.089Z,16.79
2023-03-20T10:10:28.067Z,16.81
2023-03-20T10:11:28.037Z,16.79
2023-03-20T10:12:28.055Z,16.79
2023-03-20T10:13:28.034Z,16.81
2023-03-20T10:14:28.015Z,16.81
2023-03-20T10:15:28.007Z,16.82
2023-03-20T10:16:28.085Z,16.82
2023-03-20T10:17:27.971Z,16.81
2023-03-20T10:18:27.976Z,16.82
2023-03-20T10:19:27.955Z,16.82
2023-03-20T10:20:27.939Z,16.82
2023-03-20T10:21:27.950Z,16.82
2023-03-20T10:22:27.916Z,16.82
2023-03-20T10:23:27.937Z,16.82
2023-03-20T10:24:27.894Z,16.83
2023-03-20T10:25:27.885Z,16.83
2023-03-20T10:26:27.875Z,16.82
2023-03-20T10:27:28.506Z,16.82
2023-03-20T10:28:27.896Z,16.82
2023-03-20T10:29:27.840Z,16.82
2023-03-20T10:30:27.835Z,16.82
2023-03-20T10:31:27.884Z,16.82
2023-03-20T10:32:27.817Z,16.83
2023-03-20T10:33:27.797Z,16.85
2023-03-20T10:34:27.790Z,16.82
2023-03-20T10:35:27.782Z,16.83
2023-03-20T10:36:27.786Z,16.83
2023-03-20T10:37:27.755Z,16.83
2023-03-20T10:38:27.747Z,16.83
2023-03-20T10:39:27.734Z,16.83
2023-03-20T10:40:27.733Z,16.83
2023-03-20T10:41:27.743Z,16.83
2023-03-20T10:42:27.709Z,16.85
2023-03-20T10:43:27.693Z,16.83
2023-03-20T10:44:27.709Z,16.85
2023-03-20T10:45:27.689Z,16.85
2023-03-20T10:46:27.759Z,16.85
2023-03-20T10:47:27.720Z,16.86
2023-03-20T10:48:27.657Z,16.85
2023-03-20T10:49:27.639Z,16.85
2023-03-20T10:50:27.616Z,16.85
2023-03-20T10:51:27.619Z,16.85
2023-03-20T10:52:27.614Z,16.83
2023-03-20T10:53:30.665Z,16.85
2023-03-20T10:54:27.615Z,16.85
2023-03-20T10:55:27.564Z,16.86
2023-03-20T10:56:27.560Z,16.86
2023-03-20T10:57:27.548Z,16.86
2023-03-20T10:58:28.125Z,16.86
2023-03-20T10:59:27.540Z,16.86
2023-03-20T11:00:27.530Z,16.86
2023-03-20T11:01:27.665Z,16.86
2023-03-20T11:02:27.510Z,16.85
2023-03-20T11:03:27.523Z,16.88
2023-03-20T11:04:27.552Z,16.86
2023-03-20T11:05:27.464Z,16.85
2023-03-20T11:06:27.446Z,16.86
2023-03-20T11:07:27.444Z,16.85
2023-03-20T11:08:27.426Z,16.86
2023-03-20T11:09:27.435Z,16.86
2023-03-20T11:10:27.421Z,16.86
2023-03-20T11:11:27.394Z,16.86
2023-03-20T11:12:27.403Z,16.86
2023-03-20T11:13:27.374Z,16.86
2023-03-20T11:14:27.362Z,16.85
2023-03-20T11:15:27.352Z,16.86
2023-03-20T11:16:27.462Z,16.86
2023-03-20T11:17:27.346Z,16.86
2023-03-20T11:18:27.350Z,16.86
2023-03-20T11:19:27.334Z,16.88
2023-03-20T11:20:27.298Z,16.88
2023-03-20T11:21:27.288Z,16.88
2023-03-20T11:22:27.278Z,16.88
2023-03-20T11:23:27.284Z,16.88
2023-03-20T11:24:27.258Z,16.85
2023-03-20T11:25:27.246Z,16.85
2023-03-20T11:26:27.257Z,16.85
2023-03-20T11:27:27.225Z,16.83
2023-03-20T11:28:27.215Z,16.83
2023-03-20T11:29:27.212Z,16.83
2023-03-20T11:30:27.210Z,16.82
2023-03-20T11:31:27.234Z,16.82
2023-03-20T11:32:27.213Z,16.82
2023-03-20T11:33:27.161Z,16.81
2023-03-20T11:34:27.149Z,16.82
2023-03-20T11:35:27.158Z,16.81
2023-03-20T11:36:28.162Z,16.81
2023-03-20T11:37:27.134Z,16.82
2023-03-20T11:38:27.104Z,16.79
2023-03-20T11:39:27.114Z,16.81
2023-03-20T11:40:27.083Z,16.81
2023-03-20T11:41:27.074Z,16.79
2023-03-20T11:42:27.076Z,16.79
2023-03-20T11:43:27.092Z,16.79
2023-03-20T11:44:27.044Z,16.78
2023-03-20T11:45:27.028Z,16.79
2023-03-20T11:46:27.025Z,16.79
2023-03-20T11:47:27.005Z,16.81
2023-03-20T11:48:27.039Z,16.78
2023-03-20T11:49:27.006Z,16.79
2023-03-20T11:50:26.968Z,16.78
2023-03-20T11:51:26.979Z,16.79
2023-03-20T11:52:26.949Z,16.78
2023-03-20T11:53:26.945Z,16.78
2023-03-20T11:54:26.930Z,16.76
2023-03-20T11:55:26.921Z,16.78
2023-03-20T11:56:26.934Z,16.76
2023-03-20T11:57:26.913Z,16.76
2023-03-20T11:58:26.889Z,16.76
2023-03-20T11:59:26.884Z,16.75
2023-03-20T12:00:26.868Z,16.75
2023-03-20T12:01:26.859Z,16.73
2023-03-20T12:02:26.887Z,16.71
2023-03-20T12:03:26.859Z,16.73
2023-03-20T12:04:26.867Z,16.73
2023-03-20T12:05:26.813Z,16.75
2023-03-20T12:06:26.820Z,16.75
2023-03-20T12:07:26.794Z,16.73
2023-03-20T12:08:26.781Z,16.76
2023-03-20T12:09:26.787Z,16.75
2023-03-20T12:10:26.764Z,16.78
2023-03-20T12:11:26.749Z,16.78
2023-03-20T12:12:26.761Z,16.78
2023-03-20T12:13:26.727Z,16.79
2023-03-20T12:14:26.716Z,16.79
2023-03-20T12:15:26.705Z,16.81
2023-03-20T12:16:26.815Z,16.81
2023-03-20T12:17:26.707Z,16.81
2023-03-20T12:18:26.680Z,16.82
2023-03-20T12:19:26.671Z,16.83
2023-03-20T12:20:26.684Z,16.81
2023-03-20T12:21:26.641Z,16.81
2023-03-20T12:22:26.656Z,16.83
2023-03-20T12:23:26.619Z,16.81
2023-03-20T12:24:26.616Z,16.81
2023-03-20T12:25:26.614Z,16.79
2023-03-20T12:26:26.614Z,16.81
2023-03-20T12:27:26.577Z,16.79
2023-03-20T12:28:26.585Z,16.78
2023-03-20T12:29:26.558Z,16.81
2023-03-20T12:30:26.564Z,16.78
2023-03-20T12:31:26.652Z,16.76
2023-03-20T12:32:26.530Z,16.79
2023-03-20T12:33:26.537Z,16.78
2023-03-20T12:34:26.507Z,16.76
2023-03-20T12:35:26.495Z,16.76
2023-03-20T12:36:26.505Z,16.78
2023-03-20T12:37:26.473Z,16.78
2023-03-20T12:38:26.486Z,16.76
2023-03-20T12:39:26.502Z,16.76
2023-03-20T12:40:27.960Z,16.76
2023-03-20T12:41:26.449Z,16.76
2023-03-20T12:42:26.443Z,16.76
2023-03-20T12:43:26.421Z,16.75
2023-03-20T12:44:26.395Z,16.76
2023-03-20T12:45:26.387Z,16.76
2023-03-20T12:46:26.463Z,16.75
2023-03-20T12:47:26.366Z,16.78
2023-03-20T12:48:26.372Z,16.76
2023-03-20T12:49:26.343Z,16.76
2023-03-20T12:50:26.331Z,16.76
2023-03-20T12:51:26.322Z,16.76
2023-03-20T12:52:26.331Z,16.76